الصفحة الرئيسية
METAR-TAF:

METAR-TAF

مطار :

كالغاري, ألبرتا, كندا

دائرة عرض: 51-07N, خط طول: 114-01W, ارتفاع: 1077 متر

مراقبة الطقس الحالي

تاريخ ووقت الإصدار 1ساعة و 6 دقيقة قبل الساعة 11:00UTC
رياح هادئة
درجة الحرارة -7°درجة مئوية
الرطوبة 93%
ضغط 1020 hPa
الرؤية: 16.1 كم
غيوم متفرقة على ارتفاع 3000 قدم
غيوم متفرقة على ارتفاع 4500 قدم

METAR: CYYC 201100Z 00000KT 10SM SCT030 SCT045 M07/M08 A3012 RMK SC3SC1 SLP259

زمن: 05:06 (12:06 UTC)

توقعات

تاريخ ووقت الإصدار 28 دقيقة قبل الساعة 11:38UTC
التوقعات صالحة من20 الساعة 12 UTC إلى 21 الساعة 12 UTC
ريح 3 عقدةمن اتجاهات متغيرة
الرؤية: 10 كم
غيوم متفرقة على ارتفاع 3000 قدم
غيوم متفرقة على ارتفاع 5000 قدم
مؤقت
من 20 الساعة 12 UTC إلى 20 الساعة 15 UTC
الرؤية: 3.2 كم
غشاء
من 20 الساعة 1500 UTC
ريح 6 عقدة من الغرب
الرؤية: 10 كم
غيوم قليلة على ارتفاع 3000 قدم
من 20 الساعة 2200 UTC
ريح 8 عقدة من الجنوب الغربي
الرؤية: 10 كم
سماء صافية

TAF: CYYC 201138Z 2012/2112 VRB03KT P6SM SCT030 SCT050 TEMPO 2012/2015 2SM BR FM201500 28006KT P6SM FEW030 FM202200 22008KT P6SM SKC RMK NXT FCST BY 201500Z

أرصاد الطقس والتوقعات من أكثر من 4000 مطار (تقارير الطقس للمطار METAR والتنبؤ بالطقس بالمطارTAF).

المحطات المتاحة هي النقط الصفراء والحمراء على الخريطة.

حرك المؤشر فوق النقطة لمعرفة اسم المحطة.

ثم انقر لمعرفة أرصاد وتوقعات الطقس.

لتغيير الخارطة: اضغط على الأزرار الخضراء مع رمز الصليب الأسود للتكبير. على الزر الأخضر مع شرطة للتصغير، أو على الأسهم الخضراء للخرائط المجاورة.


METAR-TAF: